sensor_id;sensor_type;location;lat;lon;timestamp;temperature;humidity
6496;DHT22;3281;47.658;9.166;2023-05-07T00:01:30;14.60;1.00
6496;DHT22;3281;47.658;9.166;2023-05-07T00:03:56;14.60;1.00
6496;DHT22;3281;47.658;9.166;2023-05-07T00:06:23;14.50;1.00
6496;DHT22;3281;47.658;9.166;2023-05-07T00:08:52;14.50;1.00
6496;DHT22;3281;47.658;9.166;2023-05-07T00:11:18;14.50;1.00
6496;DHT22;3281;47.658;9.166;2023-05-07T00:13:46;14.50;1.00
6496;DHT22;3281;47.658;9.166;2023-05-07T00:16:13;14.40;1.00
6496;DHT22;3281;47.658;9.166;2023-05-07T00:18:41;14.40;1.00
6496;DHT22;3281;47.658;9.166;2023-05-07T00:21:07;14.40;1.00
6496;DHT22;3281;47.658;9.166;2023-05-07T00:23:34;14.30;1.00
6496;DHT22;3281;47.658;9.166;2023-05-07T00:26:01;14.40;1.00
6496;DHT22;3281;47.658;9.166;2023-05-07T00:28:27;14.30;1.00
6496;DHT22;3281;47.658;9.166;2023-05-07T00:30:54;14.40;1.00
6496;DHT22;3281;47.658;9.166;2023-05-07T00:33:21;14.30;1.00
6496;DHT22;3281;47.658;9.166;2023-05-07T00:35:49;14.40;1.00
6496;DHT22;3281;47.658;9.166;2023-05-07T00:38:16;14.40;1.00
6496;DHT22;3281;47.658;9.166;2023-05-07T00:40:42;14.40;1.00
6496;DHT22;3281;47.658;9.166;2023-05-07T00:43:09;14.30;1.00
6496;DHT22;3281;47.658;9.166;2023-05-07T00:45:36;14.30;1.00
6496;DHT22;3281;47.658;9.166;2023-05-07T00:48:03;14.30;1.00
6496;DHT22;3281;47.658;9.166;2023-05-07T00:50:30;14.40;1.00
6496;DHT22;3281;47.658;9.166;2023-05-07T00:52:59;14.40;1.00
6496;DHT22;3281;47.658;9.166;2023-05-07T00:55:26;14.40;1.00
6496;DHT22;3281;47.658;9.166;2023-05-07T00:57:53;14.30;1.00
6496;DHT22;3281;47.658;9.166;2023-05-07T01:00:20;14.30;1.00
6496;DHT22;3281;47.658;9.166;2023-05-07T01:02:47;14.30;1.00
6496;DHT22;3281;47.658;9.166;2023-05-07T01:05:16;14.20;1.00
6496;DHT22;3281;47.658;9.166;2023-05-07T01:07:43;14.10;1.00
6496;DHT22;3281;47.658;9.166;2023-05-07T01:10:12;14.10;1.00
6496;DHT22;3281;47.658;9.166;2023-05-07T01:12:40;14.00;1.00
6496;DHT22;3281;47.658;9.166;2023-05-07T01:15:09;14.10;1.00
6496;DHT22;3281;47.658;9.166;2023-05-07T01:17:36;14.10;1.00
6496;DHT22;3281;47.658;9.166;2023-05-07T01:20:05;14.20;1.00
6496;DHT22;3281;47.658;9.166;2023-05-07T01:22:34;14.30;1.00
6496;DHT22;3281;47.658;9.166;2023-05-07T01:25:02;14.30;1.00
6496;DHT22;3281;47.658;9.166;2023-05-07T01:27:29;14.30;1.00
6496;DHT22;3281;47.658;9.166;2023-05-07T01:29:56;14.20;1.00
6496;DHT22;3281;47.658;9.166;2023-05-07T01:32:29;14.20;1.00
6496;DHT22;3281;47.658;9.166;2023-05-07T01:34:58;14.10;1.00
6496;DHT22;3281;47.658;9.166;2023-05-07T01:37:26;14.10;1.00
6496;DHT22;3281;47.658;9.166;2023-05-07T01:39:54;14.20;1.00
6496;DHT22;3281;47.658;9.166;2023-05-07T01:42:22;14.10;1.00
6496;DHT22;3281;47.658;9.166;2023-05-07T01:44:49;14.20;1.00
6496;DHT22;3281;47.658;9.166;2023-05-07T01:47:16;14.10;1.00
6496;DHT22;3281;47.658;9.166;2023-05-07T01:49:43;14.10;1.00
6496;DHT22;3281;47.658;9.166;2023-05-07T01:52:10;14.00;1.00
6496;DHT22;3281;47.658;9.166;2023-05-07T01:54:37;14.00;1.00
6496;DHT22;3281;47.658;9.166;2023-05-07T01:57:05;13.90;1.00
6496;DHT22;3281;47.658;9.166;2023-05-07T01:59:32;13.90;1.00
6496;DHT22;3281;47.658;9.166;2023-05-07T02:01:59;13.90;1.00
6496;DHT22;3281;47.658;9.166;2023-05-07T02:04:26;13.90;1.00
6496;DHT22;3281;47.658;9.166;2023-05-07T02:06:52;13.90;1.00
6496;DHT22;3281;47.658;9.166;2023-05-07T02:09:19;13.80;1.00
6496;DHT22;3281;47.658;9.166;2023-05-07T02:11:46;13.80;1.00
6496;DHT22;3281;47.658;9.166;2023-05-07T02:14:14;13.70;1.00
6496;DHT22;3281;47.658;9.166;2023-05-07T02:16:40;13.70;1.00
6496;DHT22;3281;47.658;9.166;2023-05-07T02:19:07;13.70;1.00
6496;DHT22;3281;47.658;9.166;2023-05-07T02:21:34;13.80;1.00
6496;DHT22;3281;47.658;9.166;2023-05-07T02:24:01;13.80;1.00
6496;DHT22;3281;47.658;9.166;2023-05-07T02:26:27;13.90;1.00
6496;DHT22;3281;47.658;9.166;2023-05-07T02:28:54;13.80;1.00
6496;DHT22;3281;47.658;9.166;2023-05-07T02:31:22;13.70;1.00
6496;DHT22;3281;47.658;9.166;2023-05-07T02:33:49;13.60;1.00
6496;DHT22;3281;47.658;9.166;2023-05-07T02:36:15;13.50;1.00
6496;DHT22;3281;47.658;9.166;2023-05-07T02:38:42;13.50;1.00
6496;DHT22;3281;47.658;9.166;2023-05-07T02:41:09;13.60;1.00
6496;DHT22;3281;47.658;9.166;2023-05-07T02:43:35;13.60;1.00
6496;DHT22;3281;47.658;9.166;2023-05-07T02:46:03;13.50;1.00
6496;DHT22;3281;47.658;9.166;2023-05-07T02:48:32;13.50;1.00
6496;DHT22;3281;47.658;9.166;2023-05-07T02:50:59;13.50;1.00
6496;DHT22;3281;47.658;9.166;2023-05-07T02:53:26;13.40;1.00
6496;DHT22;3281;47.658;9.166;2023-05-07T02:55:53;13.40;1.00
6496;DHT22;3281;47.658;9.166;2023-05-07T02:58:20;13.30;1.00
6496;DHT22;3281;47.658;9.166;2023-05-07T03:00:46;13.30;1.00
6496;DHT22;3281;47.658;9.166;2023-05-07T03:03:13;13.30;1.00
6496;DHT22;3281;47.658;9.166;2023-05-07T03:05:41;13.20;1.00
6496;DHT22;3281;47.658;9.166;2023-05-07T03:08:09;13.20;1.00
6496;DHT22;3281;47.658;9.166;2023-05-07T03:10:36;13.10;1.00
6496;DHT22;3281;47.658;9.166;2023-05-07T03:13:03;13.10;1.00
6496;DHT22;3281;47.658;9.166;2023-05-07T03:15:29;13.10;1.00
6496;DHT22;3281;47.658;9.166;2023-05-07T03:17:56;13.10;1.00
6496;DHT22;3281;47.658;9.166;2023-05-07T03:20:23;13.00;1.00
6496;DHT22;3281;47.658;9.166;2023-05-07T03:22:51;13.10;1.00
6496;DHT22;3281;47.658;9.166;2023-05-07T03:25:18;13.10;1.00
6496;DHT22;3281;47.658;9.166;2023-05-07T03:27:44;13.00;1.00
6496;DHT22;3281;47.658;9.166;2023-05-07T03:30:12;13.00;1.00
6496;DHT22;3281;47.658;9.166;2023-05-07T03:32:38;13.10;1.00
6496;DHT22;3281;47.658;9.166;2023-05-07T03:35:06;12.90;1.00
6496;DHT22;3281;47.658;9.166;2023-05-07T03:37:33;12.90;1.00
6496;DHT22;3281;47.658;9.166;2023-05-07T03:40:01;13.00;1.00
6496;DHT22;3281;47.658;9.166;2023-05-07T03:42:29;13.10;1.00
6496;DHT22;3281;47.658;9.166;2023-05-07T03:44:56;12.90;1.00
6496;DHT22;3281;47.658;9.166;2023-05-07T03:47:22;12.90;1.00
6496;DHT22;3281;47.658;9.166;2023-05-07T03:49:49;12.90;1.00
6496;DHT22;3281;47.658;9.166;2023-05-07T03:52:18;12.90;1.00
6496;DHT22;3281;47.658;9.166;2023-05-07T03:54:49;13.00;1.00
6496;DHT22;3281;47.658;9.166;2023-05-07T03:57:17;12.90;1.00
6496;DHT22;3281;47.658;9.166;2023-05-07T03:59:43;12.80;1.00
6496;DHT22;3281;47.658;9.166;2023-05-07T04:02:10;12.80;1.00
6496;DHT22;3281;47.658;9.166;2023-05-07T04:04:37;12.80;1.00
6496;DHT22;3281;47.658;9.166;2023-05-07T04:07:04;12.80;1.00
6496;DHT22;3281;47.658;9.166;2023-05-07T04:09:30;12.80;1.00
6496;DHT22;3281;47.658;9.166;2023-05-07T04:11:57;12.90;1.00
6496;DHT22;3281;47.658;9.166;2023-05-07T04:14:25;12.80;1.00
6496;DHT22;3281;47.658;9.166;2023-05-07T04:16:52;12.80;1.00
6496;DHT22;3281;47.658;9.166;2023-05-07T04:19:18;12.90;1.00
6496;DHT22;3281;47.658;9.166;2023-05-07T04:21:45;12.90;1.00
6496;DHT22;3281;47.658;9.166;2023-05-07T04:24:12;12.80;1.00
6496;DHT22;3281;47.658;9.166;2023-05-07T04:26:39;12.70;1.00
6496;DHT22;3281;47.658;9.166;2023-05-07T04:29:06;12.70;1.00
6496;DHT22;3281;47.658;9.166;2023-05-07T04:31:34;12.80;1.00
6496;DHT22;3281;47.658;9.166;2023-05-07T04:34:00;12.90;1.00
6496;DHT22;3281;47.658;9.166;2023-05-07T04:36:27;13.00;1.20
6496;DHT22;3281;47.658;9.166;2023-05-07T04:38:54;13.00;1.20
6496;DHT22;3281;47.658;9.166;2023-05-07T04:41:21;13.10;4.30
6496;DHT22;3281;47.658;9.166;2023-05-07T04:43:47;13.20;4.40
6496;DHT22;3281;47.658;9.166;2023-05-07T04:46:14;13.20;1.50
6496;DHT22;3281;47.658;9.166;2023-05-07T04:48:42;13.20;1.30
6496;DHT22;3281;47.658;9.166;2023-05-07T04:51:09;13.10;1.00
6496;DHT22;3281;47.658;9.166;2023-05-07T04:53:37;13.10;1.50
6496;DHT22;3281;47.658;9.166;2023-05-07T04:56:04;13.20;1.00
6496;DHT22;3281;47.658;9.166;2023-05-07T04:58:30;13.40;3.00
6496;DHT22;3281;47.658;9.166;2023-05-07T05:00:57;13.50;2.90
6496;DHT22;3281;47.658;9.166;2023-05-07T05:03:24;13.50;1.40
6496;DHT22;3281;47.658;9.166;2023-05-07T05:05:52;13.50;1.40
6496;DHT22;3281;47.658;9.166;2023-05-07T05:08:19;13.60;3.00
6496;DHT22;3281;47.658;9.166;2023-05-07T05:10:45;13.80;6.00
6496;DHT22;3281;47.658;9.166;2023-05-07T05:13:14;13.80;2.50
6496;DHT22;3281;47.658;9.166;2023-05-07T05:15:40;13.80;1.60
6496;DHT22;3281;47.658;9.166;2023-05-07T05:18:07;13.80;1.60
6496;DHT22;3281;47.658;9.166;2023-05-07T05:20:34;13.90;3.60
6496;DHT22;3281;47.658;9.166;2023-05-07T05:23:02;14.00;2.30
6496;DHT22;3281;47.658;9.166;2023-05-07T05:25:29;14.00;1.80
6496;DHT22;3281;47.658;9.166;2023-05-07T05:27:56;14.10;2.20
6496;DHT22;3281;47.658;9.166;2023-05-07T05:30:23;14.20;2.60
6496;DHT22;3281;47.658;9.166;2023-05-07T05:32:49;14.30;1.90
6496;DHT22;3281;47.658;9.166;2023-05-07T05:35:16;14.30;1.90
6496;DHT22;3281;47.658;9.166;2023-05-07T05:37:43;14.40;2.00
6496;DHT22;3281;47.658;9.166;2023-05-07T05:40:12;14.50;1.80
6496;DHT22;3281;47.658;9.166;2023-05-07T05:42:38;14.60;1.00
6496;DHT22;3281;47.658;9.166;2023-05-07T05:45:06;14.70;1.00
6496;DHT22;3281;47.658;9.166;2023-05-07T05:47:33;14.80;1.00
6496;DHT22;3281;47.658;9.166;2023-05-07T05:50:00;14.90;2.30
6496;DHT22;3281;47.658;9.166;2023-05-07T05:52:27;14.90;1.00
6496;DHT22;3281;47.658;9.166;2023-05-07T05:54:54;15.00;1.00
6496;DHT22;3281;47.658;9.166;2023-05-07T05:57:22;15.10;1.00
6496;DHT22;3281;47.658;9.166;2023-05-07T05:59:48;15.10;1.00
6496;DHT22;3281;47.658;9.166;2023-05-07T06:02:15;15.20;1.00
6496;DHT22;3281;47.658;9.166;2023-05-07T06:04:42;15.30;1.00
6496;DHT22;3281;47.658;9.166;2023-05-07T06:07:08;15.40;1.00
6496;DHT22;3281;47.658;9.166;2023-05-07T06:09:35;15.30;1.00
6496;DHT22;3281;47.658;9.166;2023-05-07T06:12:02;15.40;1.00
6496;DHT22;3281;47.658;9.166;2023-05-07T06:14:30;15.60;1.00
6496;DHT22;3281;47.658;9.166;2023-05-07T06:16:57;15.60;1.00
6496;DHT22;3281;47.658;9.166;2023-05-07T06:19:23;15.70;1.00
6496;DHT22;3281;47.658;9.166;2023-05-07T06:21:52;15.70;1.00
6496;DHT22;3281;47.658;9.166;2023-05-07T06:24:18;15.80;1.00
6496;DHT22;3281;47.658;9.166;2023-05-07T06:26:45;16.00;1.00
6496;DHT22;3281;47.658;9.166;2023-05-07T06:29:12;16.10;1.00
6496;DHT22;3281;47.658;9.166;2023-05-07T06:31:40;16.10;1.00
6496;DHT22;3281;47.658;9.166;2023-05-07T06:34:07;16.00;1.00
6496;DHT22;3281;47.658;9.166;2023-05-07T06:36:34;16.10;1.00
6496;DHT22;3281;47.658;9.166;2023-05-07T06:39:00;16.10;1.00
6496;DHT22;3281;47.658;9.166;2023-05-07T06:41:27;16.20;1.00
6496;DHT22;3281;47.658;9.166;2023-05-07T06:43:54;16.30;1.00
6496;DHT22;3281;47.658;9.166;2023-05-07T06:46:20;16.30;1.00
6496;DHT22;3281;47.658;9.166;2023-05-07T06:48:48;16.30;1.00
6496;DHT22;3281;47.658;9.166;2023-05-07T06:51:15;16.30;1.00
6496;DHT22;3281;47.658;9.166;2023-05-07T06:53:42;16.40;1.00
6496;DHT22;3281;47.658;9.166;2023-05-07T06:56:08;16.50;1.00
6496;DHT22;3281;47.658;9.166;2023-05-07T06:58:35;16.60;1.00
6496;DHT22;3281;47.658;9.166;2023-05-07T07:01:02;16.60;1.00
6496;DHT22;3281;47.658;9.166;2023-05-07T07:03:28;16.60;1.00
6496;DHT22;3281;47.658;9.166;2023-05-07T07:05:56;16.60;1.00
6496;DHT22;3281;47.658;9.166;2023-05-07T07:08:23;16.50;1.00
6496;DHT22;3281;47.658;9.166;2023-05-07T07:10:50;16.50;1.00
6496;DHT22;3281;47.658;9.166;2023-05-07T07:13:16;16.50;1.00
6496;DHT22;3281;47.658;9.166;2023-05-07T07:15:43;16.60;1.00
6496;DHT22;3281;47.658;9.166;2023-05-07T07:18:10;16.60;1.00
6496;DHT22;3281;47.658;9.166;2023-05-07T07:20:37;16.70;1.00
6496;DHT22;3281;47.658;9.166;2023-05-07T07:23:05;16.70;1.00
6496;DHT22;3281;47.658;9.166;2023-05-07T07:25:31;16.80;1.00
6496;DHT22;3281;47.658;9.166;2023-05-07T07:27:59;16.80;1.00
6496;DHT22;3281;47.658;9.166;2023-05-07T07:30:25;16.80;1.00
6496;DHT22;3281;47.658;9.166;2023-05-07T07:32:52;16.80;1.00
6496;DHT22;3281;47.658;9.166;2023-05-07T07:35:19;16.80;1.00
6496;DHT22;3281;47.658;9.166;2023-05-07T07:37:46;16.90;1.00
6496;DHT22;3281;47.658;9.166;2023-05-07T07:40:16;17.10;1.00
6496;DHT22;3281;47.658;9.166;2023-05-07T07:42:43;17.10;1.00
6496;DHT22;3281;47.658;9.166;2023-05-07T07:45:10;17.20;1.00
6496;DHT22;3281;47.658;9.166;2023-05-07T07:47:37;17.20;1.00
6496;DHT22;3281;47.658;9.166;2023-05-07T07:50:04;17.40;1.00
6496;DHT22;3281;47.658;9.166;2023-05-07T07:52:32;17.50;1.00
6496;DHT22;3281;47.658;9.166;2023-05-07T07:54:59;17.60;1.00
6496;DHT22;3281;47.658;9.166;2023-05-07T07:57:27;17.80;1.00
6496;DHT22;3281;47.658;9.166;2023-05-07T07:59:53;17.70;1.00
6496;DHT22;3281;47.658;9.166;2023-05-07T08:02:20;17.80;1.00
6496;DHT22;3281;47.658;9.166;2023-05-07T08:04:47;18.00;1.00
6496;DHT22;3281;47.658;9.166;2023-05-07T08:07:14;18.10;1.00
6496;DHT22;3281;47.658;9.166;2023-05-07T08:09:40;18.20;1.00
6496;DHT22;3281;47.658;9.166;2023-05-07T08:12:07;18.40;1.00
6496;DHT22;3281;47.658;9.166;2023-05-07T08:14:35;18.40;1.00
6496;DHT22;3281;47.658;9.166;2023-05-07T08:17:03;18.50;1.00
6496;DHT22;3281;47.658;9.166;2023-05-07T08:19:29;18.60;1.00
6496;DHT22;3281;47.658;9.166;2023-05-07T08:21:56;18.70;1.00
6496;DHT22;3281;47.658;9.166;2023-05-07T08:24:23;18.60;1.00
6496;DHT22;3281;47.658;9.166;2023-05-07T08:26:49;18.60;1.00
6496;DHT22;3281;47.658;9.166;2023-05-07T08:29:16;18.50;1.00
6496;DHT22;3281;47.658;9.166;2023-05-07T08:31:44;18.70;1.00
6496;DHT22;3281;47.658;9.166;2023-05-07T08:34:11;18.80;1.00
6496;DHT22;3281;47.658;9.166;2023-05-07T08:36:37;18.90;1.00
6496;DHT22;3281;47.658;9.166;2023-05-07T08:39:07;18.90;1.00
6496;DHT22;3281;47.658;9.166;2023-05-07T08:41:34;19.10;1.00
6496;DHT22;3281;47.658;9.166;2023-05-07T08:44:03;19.10;1.00
6496;DHT22;3281;47.658;9.166;2023-05-07T08:46:32;19.00;1.00
6496;DHT22;3281;47.658;9.166;2023-05-07T08:49:00;19.00;1.00
6496;DHT22;3281;47.658;9.166;2023-05-07T08:51:27;19.10;1.00
6496;DHT22;3281;47.658;9.166;2023-05-07T08:53:54;19.30;1.00
6496;DHT22;3281;47.658;9.166;2023-05-07T08:56:20;19.30;1.00
6496;DHT22;3281;47.658;9.166;2023-05-07T08:58:48;19.40;1.00
6496;DHT22;3281;47.658;9.166;2023-05-07T09:01:15;19.40;1.00
6496;DHT22;3281;47.658;9.166;2023-05-07T09:03:44;19.60;1.00
6496;DHT22;3281;47.658;9.166;2023-05-07T09:06:13;19.60;1.00
6496;DHT22;3281;47.658;9.166;2023-05-07T09:08:40;19.70;1.00
6496;DHT22;3281;47.658;9.166;2023-05-07T09:11:07;19.80;1.00
6496;DHT22;3281;47.658;9.166;2023-05-07T09:13:35;19.90;1.00
6496;DHT22;3281;47.658;9.166;2023-05-07T09:16:10;20.00;1.00
6496;DHT22;3281;47.658;9.166;2023-05-07T09:18:41;20.30;1.00
6496;DHT22;3281;47.658;9.166;2023-05-07T09:21:10;20.40;1.00
6496;DHT22;3281;47.658;9.166;2023-05-07T09:23:38;20.50;1.00
6496;DHT22;3281;47.658;9.166;2023-05-07T09:26:06;20.30;1.00
6496;DHT22;3281;47.658;9.166;2023-05-07T09:28:38;20.40;1.00
6496;DHT22;3281;47.658;9.166;2023-05-07T09:31:05;20.40;1.00
6496;DHT22;3281;47.658;9.166;2023-05-07T09:33:32;20.40;1.00
6496;DHT22;3281;47.658;9.166;2023-05-07T09:35:58;20.50;1.00
6496;DHT22;3281;47.658;9.166;2023-05-07T09:38:28;20.70;1.00
6496;DHT22;3281;47.658;9.166;2023-05-07T09:41:03;20.80;1.00
6496;DHT22;3281;47.658;9.166;2023-05-07T09:43:32;21.20;1.00
6496;DHT22;3281;47.658;9.166;2023-05-07T09:46:06;21.50;1.00
6496;DHT22;3281;47.658;9.166;2023-05-07T09:48:36;21.80;1.00
6496;DHT22;3281;47.658;9.166;2023-05-07T09:51:11;21.90;1.00
6496;DHT22;3281;47.658;9.166;2023-05-07T09:53:41;22.30;1.00
6496;DHT22;3281;47.658;9.166;2023-05-07T09:56:09;22.40;1.00
6496;DHT22;3281;47.658;9.166;2023-05-07T09:58:37;22.80;1.00
6496;DHT22;3281;47.658;9.166;2023-05-07T10:01:06;23.10;1.00
6496;DHT22;3281;47.658;9.166;2023-05-07T10:03:35;23.40;1.00
6496;DHT22;3281;47.658;9.166;2023-05-07T10:06:03;23.70;1.00
6496;DHT22;3281;47.658;9.166;2023-05-07T10:08:30;23.40;1.00
6496;DHT22;3281;47.658;9.166;2023-05-07T10:10:58;23.00;1.00
6496;DHT22;3281;47.658;9.166;2023-05-07T10:13:27;23.10;1.00
6496;DHT22;3281;47.658;9.166;2023-05-07T10:15:55;22.80;1.00
6496;DHT22;3281;47.658;9.166;2023-05-07T10:18:22;22.90;1.00
6496;DHT22;3281;47.658;9.166;2023-05-07T10:20:54;23.10;1.00
6496;DHT22;3281;47.658;9.166;2023-05-07T10:23:26;22.90;1.00
6496;DHT22;3281;47.658;9.166;2023-05-07T10:25:54;23.30;1.00
6496;DHT22;3281;47.658;9.166;2023-05-07T10:28:22;23.40;1.00
6496;DHT22;3281;47.658;9.166;2023-05-07T10:30:58;23.10;1.00
6496;DHT22;3281;47.658;9.166;2023-05-07T10:33:29;23.70;1.00
6496;DHT22;3281;47.658;9.166;2023-05-07T10:35:59;23.80;1.00
6496;DHT22;3281;47.658;9.166;2023-05-07T10:38:27;23.90;1.00
6496;DHT22;3281;47.658;9.166;2023-05-07T10:40:54;24.20;1.00
6496;DHT22;3281;47.658;9.166;2023-05-07T10:43:21;24.60;1.00
6496;DHT22;3281;47.658;9.166;2023-05-07T10:46:14;24.70;1.00
6496;DHT22;3281;47.658;9.166;2023-05-07T10:49:10;24.50;1.00
6496;DHT22;3281;47.658;9.166;2023-05-07T10:51:37;23.90;1.00
6496;DHT22;3281;47.658;9.166;2023-05-07T10:54:21;23.90;1.00
6496;DHT22;3281;47.658;9.166;2023-05-07T10:56:49;24.10;1.00
6496;DHT22;3281;47.658;9.166;2023-05-07T10:59:37;23.70;1.00
6496;DHT22;3281;47.658;9.166;2023-05-07T11:02:11;23.50;1.00
6496;DHT22;3281;47.658;9.166;2023-05-07T11:04:39;23.20;1.00
6496;DHT22;3281;47.658;9.166;2023-05-07T11:07:28;22.60;1.00
6496;DHT22;3281;47.658;9.166;2023-05-07T11:09:59;22.50;1.00
6496;DHT22;3281;47.658;9.166;2023-05-07T11:12:52;22.40;1.00
6496;DHT22;3281;47.658;9.166;2023-05-07T11:15:39;22.30;1.00
6496;DHT22;3281;47.658;9.166;2023-05-07T11:18:09;22.20;1.00
6496;DHT22;3281;47.658;9.166;2023-05-07T11:20:53;21.80;1.00
6496;DHT22;3281;47.658;9.166;2023-05-07T11:23:55;21.30;1.00
6496;DHT22;3281;47.658;9.166;2023-05-07T11:26:22;21.00;1.00
6496;DHT22;3281;47.658;9.166;2023-05-07T11:28:49;21.20;1.00
6496;DHT22;3281;47.658;9.166;2023-05-07T11:31:21;20.90;1.00
6496;DHT22;3281;47.658;9.166;2023-05-07T11:33:49;21.10;1.00
6496;DHT22;3281;47.658;9.166;2023-05-07T11:36:18;21.20;1.00
6496;DHT22;3281;47.658;9.166;2023-05-07T11:38:46;21.30;1.00
6496;DHT22;3281;47.658;9.166;2023-05-07T11:41:12;21.30;1.00
6496;DHT22;3281;47.658;9.166;2023-05-07T11:43:53;21.40;1.00
6496;DHT22;3281;47.658;9.166;2023-05-07T11:46:21;21.30;1.00
6496;DHT22;3281;47.658;9.166;2023-05-07T11:48:49;21.10;1.00
6496;DHT22;3281;47.658;9.166;2023-05-07T11:51:19;20.80;1.00
6496;DHT22;3281;47.658;9.166;2023-05-07T11:53:46;21.00;1.00
6496;DHT22;3281;47.658;9.166;2023-05-07T11:56:14;21.00;1.00
6496;DHT22;3281;47.658;9.166;2023-05-07T11:58:42;21.00;1.00
6496;DHT22;3281;47.658;9.166;2023-05-07T12:01:11;20.90;1.00
6496;DHT22;3281;47.658;9.166;2023-05-07T12:03:40;20.90;1.00
6496;DHT22;3281;47.658;9.166;2023-05-07T12:06:09;20.70;1.00
6496;DHT22;3281;47.658;9.166;2023-05-07T12:08:36;20.70;1.00
6496;DHT22;3281;47.658;9.166;2023-05-07T12:11:07;20.80;1.00
6496;DHT22;3281;47.658;9.166;2023-05-07T12:13:34;20.70;1.00
6496;DHT22;3281;47.658;9.166;2023-05-07T12:16:01;20.80;1.00
6496;DHT22;3281;47.658;9.166;2023-05-07T12:18:29;20.80;1.00
6496;DHT22;3281;47.658;9.166;2023-05-07T12:20:55;20.80;1.00
6496;DHT22;3281;47.658;9.166;2023-05-07T12:23:24;20.70;1.00
6496;DHT22;3281;47.658;9.166;2023-05-07T12:25:50;20.80;1.00
6496;DHT22;3281;47.658;9.166;2023-05-07T12:28:18;20.90;1.00
6496;DHT22;3281;47.658;9.166;2023-05-07T12:30:46;21.00;1.00
6496;DHT22;3281;47.658;9.166;2023-05-07T12:33:16;21.00;1.00
6496;DHT22;3281;47.658;9.166;2023-05-07T12:35:43;21.00;1.00
6496;DHT22;3281;47.658;9.166;2023-05-07T12:38:11;21.10;1.00
6496;DHT22;3281;47.658;9.166;2023-05-07T12:40:41;21.10;1.00
6496;DHT22;3281;47.658;9.166;2023-05-07T12:43:08;21.10;1.00
6496;DHT22;3281;47.658;9.166;2023-05-07T12:45:41;21.30;1.00
6496;DHT22;3281;47.658;9.166;2023-05-07T12:48:09;21.30;1.00
6496;DHT22;3281;47.658;9.166;2023-05-07T12:50:36;21.40;1.00
6496;DHT22;3281;47.658;9.166;2023-05-07T12:53:04;21.60;1.00
6496;DHT22;3281;47.658;9.166;2023-05-07T12:55:32;21.70;1.00
6496;DHT22;3281;47.658;9.166;2023-05-07T12:58:01;21.70;1.00
6496;DHT22;3281;47.658;9.166;2023-05-07T13:00:35;21.80;1.00
6496;DHT22;3281;47.658;9.166;2023-05-07T13:03:02;21.80;1.00
6496;DHT22;3281;47.658;9.166;2023-05-07T13:05:29;21.70;1.00
6496;DHT22;3281;47.658;9.166;2023-05-07T13:07:56;21.80;1.00
6496;DHT22;3281;47.658;9.166;2023-05-07T13:10:23;21.90;1.00
6496;DHT22;3281;47.658;9.166;2023-05-07T13:12:50;21.90;1.00
6496;DHT22;3281;47.658;9.166;2023-05-07T13:15:19;21.90;1.00
6496;DHT22;3281;47.658;9.166;2023-05-07T13:17:46;22.00;1.00
6496;DHT22;3281;47.658;9.166;2023-05-07T13:20:12;22.20;1.00
6496;DHT22;3281;47.658;9.166;2023-05-07T13:22:39;22.10;1.00
6496;DHT22;3281;47.658;9.166;2023-05-07T13:25:07;22.30;1.00
6496;DHT22;3281;47.658;9.166;2023-05-07T13:27:34;22.50;1.00
6496;DHT22;3281;47.658;9.166;2023-05-07T13:30:02;22.60;1.00
6496;DHT22;3281;47.658;9.166;2023-05-07T13:32:31;22.60;1.00
6496;DHT22;3281;47.658;9.166;2023-05-07T13:34:58;22.60;1.00
6496;DHT22;3281;47.658;9.166;2023-05-07T13:37:24;22.50;1.00
6496;DHT22;3281;47.658;9.166;2023-05-07T13:39:51;22.50;1.00
6496;DHT22;3281;47.658;9.166;2023-05-07T13:42:18;22.40;1.00
6496;DHT22;3281;47.658;9.166;2023-05-07T13:44:44;22.50;1.00
6496;DHT22;3281;47.658;9.166;2023-05-07T13:47:11;22.50;1.00
6496;DHT22;3281;47.658;9.166;2023-05-07T13:49:39;22.40;1.00
6496;DHT22;3281;47.658;9.166;2023-05-07T13:52:06;22.40;1.00
6496;DHT22;3281;47.658;9.166;2023-05-07T13:54:32;22.50;1.00
6496;DHT22;3281;47.658;9.166;2023-05-07T13:56:59;22.50;1.00
6496;DHT22;3281;47.658;9.166;2023-05-07T13:59:27;22.50;1.00
6496;DHT22;3281;47.658;9.166;2023-05-07T14:01:54;22.60;1.00
6496;DHT22;3281;47.658;9.166;2023-05-07T14:04:21;22.60;1.00
6496;DHT22;3281;47.658;9.166;2023-05-07T14:06:49;22.60;1.00
6496;DHT22;3281;47.658;9.166;2023-05-07T14:09:16;22.70;1.00
6496;DHT22;3281;47.658;9.166;2023-05-07T14:11:42;22.60;1.00
6496;DHT22;3281;47.658;9.166;2023-05-07T14:14:09;22.50;1.00
6496;DHT22;3281;47.658;9.166;2023-05-07T14:16:37;22.20;1.00
6496;DHT22;3281;47.658;9.166;2023-05-07T14:19:03;22.00;1.00
6496;DHT22;3281;47.658;9.166;2023-05-07T14:21:30;21.90;1.00
6496;DHT22;3281;47.658;9.166;2023-05-07T14:23:58;21.90;1.00
6496;DHT22;3281;47.658;9.166;2023-05-07T14:26:25;21.80;1.00
6496;DHT22;3281;47.658;9.166;2023-05-07T14:28:53;21.80;1.00
6496;DHT22;3281;47.658;9.166;2023-05-07T14:31:22;21.80;1.00
6496;DHT22;3281;47.658;9.166;2023-05-07T14:33:49;21.60;1.00
6496;DHT22;3281;47.658;9.166;2023-05-07T14:36:16;21.40;1.00
6496;DHT22;3281;47.658;9.166;2023-05-07T14:38:43;21.30;1.00
6496;DHT22;3281;47.658;9.166;2023-05-07T14:41:11;21.20;1.00
6496;DHT22;3281;47.658;9.166;2023-05-07T14:43:38;21.10;1.00
6496;DHT22;3281;47.658;9.166;2023-05-07T14:46:05;20.90;1.00
6496;DHT22;3281;47.658;9.166;2023-05-07T14:48:31;21.00;1.00
6496;DHT22;3281;47.658;9.166;2023-05-07T14:50:58;20.90;1.00
6496;DHT22;3281;47.658;9.166;2023-05-07T14:53:25;21.00;1.00
6496;DHT22;3281;47.658;9.166;2023-05-07T14:55:51;21.00;1.00
6496;DHT22;3281;47.658;9.166;2023-05-07T14:58:19;21.00;1.00
6496;DHT22;3281;47.658;9.166;2023-05-07T15:00:46;21.00;1.00
6496;DHT22;3281;47.658;9.166;2023-05-07T15:03:13;20.90;1.00
6496;DHT22;3281;47.658;9.166;2023-05-07T15:05:40;20.90;1.00
6496;DHT22;3281;47.658;9.166;2023-05-07T15:08:07;20.80;1.00
6496;DHT22;3281;47.658;9.166;2023-05-07T15:10:35;20.70;1.00
6496;DHT22;3281;47.658;9.166;2023-05-07T15:13:06;20.70;1.00
6496;DHT22;3281;47.658;9.166;2023-05-07T15:15:34;20.60;1.00
6496;DHT22;3281;47.658;9.166;2023-05-07T15:18:01;20.60;1.00
6496;DHT22;3281;47.658;9.166;2023-05-07T15:20:28;20.60;1.00
6496;DHT22;3281;47.658;9.166;2023-05-07T15:22:54;20.60;1.00
6496;DHT22;3281;47.658;9.166;2023-05-07T15:25:22;20.50;1.00
6496;DHT22;3281;47.658;9.166;2023-05-07T15:27:49;20.50;1.00
6496;DHT22;3281;47.658;9.166;2023-05-07T15:30:16;20.50;1.00
6496;DHT22;3281;47.658;9.166;2023-05-07T15:32:46;20.40;1.00
6496;DHT22;3281;47.658;9.166;2023-05-07T15:35:13;20.40;1.00
6496;DHT22;3281;47.658;9.166;2023-05-07T15:37:40;20.40;1.00
6496;DHT22;3281;47.658;9.166;2023-05-07T15:40:07;20.40;1.00
6496;DHT22;3281;47.658;9.166;2023-05-07T15:42:34;20.30;1.00
6496;DHT22;3281;47.658;9.166;2023-05-07T15:45:01;20.30;1.00
6496;DHT22;3281;47.658;9.166;2023-05-07T15:47:28;20.40;1.00
6496;DHT22;3281;47.658;9.166;2023-05-07T15:50:00;20.30;1.00
6496;DHT22;3281;47.658;9.166;2023-05-07T15:52:26;20.30;1.00
6496;DHT22;3281;47.658;9.166;2023-05-07T15:54:53;20.20;1.00
6496;DHT22;3281;47.658;9.166;2023-05-07T15:57:20;20.20;1.00
6496;DHT22;3281;47.658;9.166;2023-05-07T15:59:47;20.10;1.00
6496;DHT22;3281;47.658;9.166;2023-05-07T16:02:14;20.10;1.00
6496;DHT22;3281;47.658;9.166;2023-05-07T16:04:40;20.00;1.00
6496;DHT22;3281;47.658;9.166;2023-05-07T16:07:08;20.00;1.00
6496;DHT22;3281;47.658;9.166;2023-05-07T16:09:35;19.90;1.00
6496;DHT22;3281;47.658;9.166;2023-05-07T16:12:02;19.80;1.00
6496;DHT22;3281;47.658;9.166;2023-05-07T16:14:29;19.70;1.00
6496;DHT22;3281;47.658;9.166;2023-05-07T16:16:56;19.70;1.00
6496;DHT22;3281;47.658;9.166;2023-05-07T16:19:22;19.60;1.00
6496;DHT22;3281;47.658;9.166;2023-05-07T16:21:49;19.60;1.00